sensor_id;sensor_type;location;lat;lon;timestamp;pressure;altitude;pressure_sealevel;temperature;humidity
32456;BME280;18912;43.270;27.942;2024-03-02T00:00:09;97965.59;;;13.66;70.69
32456;BME280;18912;43.270;27.942;2024-03-02T00:02:45;97964.94;;;13.70;70.54
32456;BME280;18912;43.270;27.942;2024-03-02T00:05:12;97963.66;;;13.73;71.05
32456;BME280;18912;43.270;27.942;2024-03-02T00:07:42;97961.13;;;13.60;71.31
32456;BME280;18912;43.270;27.942;2024-03-02T00:10:09;97957.47;;;13.66;71.13
32456;BME280;18912;43.270;27.942;2024-03-02T00:12:39;97965.88;;;13.76;70.59
32456;BME280;18912;43.270;27.942;2024-03-02T00:17:53;97947.63;;;13.94;69.70
32456;BME280;18912;43.270;27.942;2024-03-02T00:20:22;97942.06;;;13.89;69.78
32456;BME280;18912;43.270;27.942;2024-03-02T00:22:48;97948.19;;;13.85;70.18
32456;BME280;18912;43.270;27.942;2024-03-02T00:25:14;97948.31;;;13.78;69.97
32456;BME280;18912;43.270;27.942;2024-03-02T00:27:39;97950.78;;;13.80;70.02
32456;BME280;18912;43.270;27.942;2024-03-02T00:33:09;97941.84;;;13.91;69.43
32456;BME280;18912;43.270;27.942;2024-03-02T00:35:35;97937.28;;;13.62;69.81
32456;BME280;18912;43.270;27.942;2024-03-02T00:38:07;97924.38;;;13.57;70.53
32456;BME280;18912;43.270;27.942;2024-03-02T00:40:32;97928.72;;;13.58;70.55
32456;BME280;18912;43.270;27.942;2024-03-02T00:42:58;97931.78;;;13.80;69.72
32456;BME280;18912;43.270;27.942;2024-03-02T00:45:25;97935.09;;;13.82;69.42
32456;BME280;18912;43.270;27.942;2024-03-02T00:47:51;97920.03;;;13.68;69.49
32456;BME280;18912;43.270;27.942;2024-03-02T00:50:17;97913.94;;;13.84;68.54
32456;BME280;18912;43.270;27.942;2024-03-02T00:52:43;97909.72;;;13.88;68.33
32456;BME280;18912;43.270;27.942;2024-03-02T00:55:09;97908.13;;;13.69;68.47
32456;BME280;18912;43.270;27.942;2024-03-02T00:57:34;97909.16;;;13.68;68.90
32456;BME280;18912;43.270;27.942;2024-03-02T01:00:00;97913.09;;;13.72;68.69
32456;BME280;18912;43.270;27.942;2024-03-02T01:02:26;97916.28;;;13.69;68.76
32456;BME280;18912;43.270;27.942;2024-03-02T01:04:52;97912.47;;;13.70;68.57
32456;BME280;18912;43.270;27.942;2024-03-02T01:07:17;97908.72;;;13.41;69.61
32456;BME280;18912;43.270;27.942;2024-03-02T01:09:43;97907.06;;;13.10;70.97
32456;BME280;18912;43.270;27.942;2024-03-02T01:12:08;97900.88;;;13.03;71.78
32456;BME280;18912;43.270;27.942;2024-03-02T01:14:34;97894.53;;;12.91;72.01
32456;BME280;18912;43.270;27.942;2024-03-02T01:17:00;97865.00;;;12.83;72.54
32456;BME280;18912;43.270;27.942;2024-03-02T01:19:28;97868.63;;;12.59;74.14
32456;BME280;18912;43.270;27.942;2024-03-02T01:21:54;97864.41;;;12.45;74.92
32456;BME280;18912;43.270;27.942;2024-03-02T01:24:19;97866.13;;;12.76;73.44
32456;BME280;18912;43.270;27.942;2024-03-02T01:26:45;97871.03;;;13.03;72.18
32456;BME280;18912;43.270;27.942;2024-03-02T01:29:10;97885.03;;;13.00;72.46
32456;BME280;18912;43.270;27.942;2024-03-02T01:31:35;97886.38;;;13.28;71.17
32456;BME280;18912;43.270;27.942;2024-03-02T01:34:01;97877.22;;;13.40;70.53
32456;BME280;18912;43.270;27.942;2024-03-02T01:36:27;97880.22;;;13.50;70.01
32456;BME280;18912;43.270;27.942;2024-03-02T01:38:52;97859.13;;;13.34;70.04
32456;BME280;18912;43.270;27.942;2024-03-02T01:41:17;97847.13;;;13.12;71.19
32456;BME280;18912;43.270;27.942;2024-03-02T01:43:43;97860.41;;;12.84;72.03
32456;BME280;18912;43.270;27.942;2024-03-02T01:46:08;97846.91;;;12.77;73.17
32456;BME280;18912;43.270;27.942;2024-03-02T01:48:34;97875.47;;;12.62;74.11
32456;BME280;18912;43.270;27.942;2024-03-02T01:51:00;97865.38;;;13.05;72.27
32456;BME280;18912;43.270;27.942;2024-03-02T01:53:26;97876.63;;;13.08;72.11
32456;BME280;18912;43.270;27.942;2024-03-02T01:55:52;97883.09;;;12.89;72.38
32456;BME280;18912;43.270;27.942;2024-03-02T01:58:17;97898.22;;;13.15;71.65
32456;BME280;18912;43.270;27.942;2024-03-02T02:00:42;97887.66;;;13.25;71.33
32456;BME280;18912;43.270;27.942;2024-03-02T02:03:08;97864.00;;;12.60;72.95
32456;BME280;18912;43.270;27.942;2024-03-02T02:05:34;97848.38;;;12.44;75.43
32456;BME280;18912;43.270;27.942;2024-03-02T02:08:01;97835.19;;;12.04;78.20
32456;BME280;18912;43.270;27.942;2024-03-02T02:10:26;97822.63;;;11.67;80.22
32456;BME280;18912;43.270;27.942;2024-03-02T02:12:52;97815.47;;;11.79;79.92
32456;BME280;18912;43.270;27.942;2024-03-02T02:15:27;97812.66;;;11.68;81.14
32456;BME280;18912;43.270;27.942;2024-03-02T02:17:54;97816.69;;;12.01;79.62
32456;BME280;18912;43.270;27.942;2024-03-02T02:20:20;97814.00;;;12.01;78.47
32456;BME280;18912;43.270;27.942;2024-03-02T02:23:02;97819.63;;;12.00;78.78
32456;BME280;18912;43.270;27.942;2024-03-02T02:25:28;97817.81;;;11.94;79.14
32456;BME280;18912;43.270;27.942;2024-03-02T02:27:55;97828.09;;;12.28;78.04
32456;BME280;18912;43.270;27.942;2024-03-02T02:30:28;97819.66;;;12.18;78.13
32456;BME280;18912;43.270;27.942;2024-03-02T02:32:54;97819.66;;;12.18;78.17
32456;BME280;18912;43.270;27.942;2024-03-02T02:35:19;97803.91;;;11.90;79.59
32456;BME280;18912;43.270;27.942;2024-03-02T02:37:46;97807.25;;;11.86;80.44
32456;BME280;18912;43.270;27.942;2024-03-02T02:40:12;97805.56;;;11.67;81.27
32456;BME280;18912;43.270;27.942;2024-03-02T02:42:38;97792.00;;;11.91;80.96
32456;BME280;18912;43.270;27.942;2024-03-02T02:45:05;97800.53;;;11.70;81.58
32456;BME280;18912;43.270;27.942;2024-03-02T02:47:30;97802.91;;;11.85;81.58
32456;BME280;18912;43.270;27.942;2024-03-02T02:49:56;97797.78;;;11.77;82.07
32456;BME280;18912;43.270;27.942;2024-03-02T02:52:22;97807.63;;;11.40;83.88
32456;BME280;18912;43.270;27.942;2024-03-02T02:54:47;97814.47;;;11.74;82.27
32456;BME280;18912;43.270;27.942;2024-03-02T02:57:12;97814.81;;;12.02;80.82
32456;BME280;18912;43.270;27.942;2024-03-02T02:59:38;97808.00;;;11.75;81.89
32456;BME280;18912;43.270;27.942;2024-03-02T03:02:03;97819.41;;;12.01;79.67
32456;BME280;18912;43.270;27.942;2024-03-02T03:04:29;97829.97;;;12.09;79.50
32456;BME280;18912;43.270;27.942;2024-03-02T03:06:54;97846.88;;;12.48;77.86
32456;BME280;18912;43.270;27.942;2024-03-02T03:09:20;97853.72;;;12.68;76.08
32456;BME280;18912;43.270;27.942;2024-03-02T03:11:46;97864.84;;;12.60;75.92
32456;BME280;18912;43.270;27.942;2024-03-02T03:14:11;97859.81;;;12.82;75.00
32456;BME280;18912;43.270;27.942;2024-03-02T03:16:36;97868.63;;;12.59;75.07
32456;BME280;18912;43.270;27.942;2024-03-02T03:19:02;97858.06;;;12.69;75.52
32456;BME280;18912;43.270;27.942;2024-03-02T03:21:27;97845.09;;;12.89;74.60
32456;BME280;18912;43.270;27.942;2024-03-02T03:23:53;97853.19;;;12.78;74.76
32456;BME280;18912;43.270;27.942;2024-03-02T03:26:18;97846.75;;;12.90;74.30
32456;BME280;18912;43.270;27.942;2024-03-02T03:28:44;97843.91;;;12.85;74.52
32456;BME280;18912;43.270;27.942;2024-03-02T03:31:09;97839.94;;;12.99;73.81
32456;BME280;18912;43.270;27.942;2024-03-02T03:33:35;97846.91;;;12.77;74.25
32456;BME280;18912;43.270;27.942;2024-03-02T03:36:01;97842.88;;;12.68;74.60
32456;BME280;18912;43.270;27.942;2024-03-02T03:38:28;97840.06;;;12.93;73.78
32456;BME280;18912;43.270;27.942;2024-03-02T03:40:54;97837.72;;;12.78;73.68
32456;BME280;18912;43.270;27.942;2024-03-02T03:43:20;97837.44;;;12.68;73.76
32456;BME280;18912;43.270;27.942;2024-03-02T03:45:45;97837.44;;;12.50;74.38
32456;BME280;18912;43.270;27.942;2024-03-02T03:48:11;97841.03;;;12.44;74.62
32456;BME280;18912;43.270;27.942;2024-03-02T03:50:37;97826.59;;;12.32;74.51
32456;BME280;18912;43.270;27.942;2024-03-02T03:53:03;97837.34;;;12.20;75.24
32456;BME280;18912;43.270;27.942;2024-03-02T03:55:29;97842.09;;;12.43;74.84
32456;BME280;18912;43.270;27.942;2024-03-02T03:57:54;97842.19;;;12.55;74.17
32456;BME280;18912;43.270;27.942;2024-03-02T04:00:20;97837.75;;;12.42;74.11
32456;BME280;18912;43.270;27.942;2024-03-02T04:02:46;97822.81;;;12.33;74.04
32456;BME280;18912;43.270;27.942;2024-03-02T04:05:11;97827.66;;;12.49;73.72
32456;BME280;18912;43.270;27.942;2024-03-02T04:07:37;97832.31;;;12.60;73.07
32456;BME280;18912;43.270;27.942;2024-03-02T04:10:07;97834.56;;;12.63;73.00
32456;BME280;18912;43.270;27.942;2024-03-02T04:12:34;97836.09;;;12.41;74.38
32456;BME280;18912;43.270;27.942;2024-03-02T04:15:01;97837.50;;;12.62;73.50
32456;BME280;18912;43.270;27.942;2024-03-02T04:17:27;97849.06;;;12.57;73.66
32456;BME280;18912;43.270;27.942;2024-03-02T04:19:52;97845.28;;;12.76;72.66
32456;BME280;18912;43.270;27.942;2024-03-02T04:22:19;97842.94;;;12.80;72.62
32456;BME280;18912;43.270;27.942;2024-03-02T04:24:44;97852.09;;;12.97;71.85
32456;BME280;18912;43.270;27.942;2024-03-02T04:27:10;97851.50;;;12.95;71.66
32456;BME280;18912;43.270;27.942;2024-03-02T04:29:35;97846.69;;;12.97;71.33
32456;BME280;18912;43.270;27.942;2024-03-02T04:32:01;97855.50;;;12.92;71.69
32456;BME280;18912;43.270;27.942;2024-03-02T04:34:26;97852.03;;;13.03;71.64
32456;BME280;18912;43.270;27.942;2024-03-02T04:36:52;97850.06;;;12.92;71.71
32456;BME280;18912;43.270;27.942;2024-03-02T04:39:17;97836.06;;;12.95;71.74
32456;BME280;18912;43.270;27.942;2024-03-02T04:41:43;97853.53;;;13.18;71.00
32456;BME280;18912;43.270;27.942;2024-03-02T04:44:08;97850.50;;;13.26;70.78
32456;BME280;18912;43.270;27.942;2024-03-02T04:46:34;97836.88;;;13.14;70.88
32456;BME280;18912;43.270;27.942;2024-03-02T04:48:59;97859.38;;;13.14;70.98
32456;BME280;18912;43.270;27.942;2024-03-02T04:51:25;97855.31;;;13.24;71.00
32456;BME280;18912;43.270;27.942;2024-03-02T04:53:50;97863.13;;;13.32;70.43
32456;BME280;18912;43.270;27.942;2024-03-02T04:56:16;97844.78;;;13.16;70.25
32456;BME280;18912;43.270;27.942;2024-03-02T04:58:57;97850.28;;;13.09;70.96
32456;BME280;18912;43.270;27.942;2024-03-02T05:01:22;97852.03;;;13.03;71.44
32456;BME280;18912;43.270;27.942;2024-03-02T05:03:48;97856.66;;;13.03;71.69
32456;BME280;18912;43.270;27.942;2024-03-02T05:06:14;97856.38;;;13.23;70.79
32456;BME280;18912;43.270;27.942;2024-03-02T05:08:39;97859.97;;;13.35;70.47
32456;BME280;18912;43.270;27.942;2024-03-02T05:11:05;97857.53;;;12.97;71.03
32456;BME280;18912;43.270;27.942;2024-03-02T05:13:49;97847.13;;;12.94;72.12
32456;BME280;18912;43.270;27.942;2024-03-02T05:16:14;97838.16;;;13.11;71.73
32456;BME280;18912;43.270;27.942;2024-03-02T05:18:40;97857.06;;;13.00;72.50
32456;BME280;18912;43.270;27.942;2024-03-02T05:21:06;97858.94;;;13.18;71.49
32456;BME280;18912;43.270;27.942;2024-03-02T05:23:31;97832.88;;;12.80;72.54
32456;BME280;18912;43.270;27.942;2024-03-02T05:25:57;97845.41;;;12.63;73.80
32456;BME280;18912;43.270;27.942;2024-03-02T05:28:22;97840.22;;;12.80;73.12
32456;BME280;18912;43.270;27.942;2024-03-02T05:30:48;97860.53;;;12.89;72.87
32456;BME280;18912;43.270;27.942;2024-03-02T05:33:14;97852.91;;;13.16;71.90
32456;BME280;18912;43.270;27.942;2024-03-02T05:35:40;97863.47;;;13.24;71.61
32456;BME280;18912;43.270;27.942;2024-03-02T05:38:06;97849.38;;;12.97;72.38
32456;BME280;18912;43.270;27.942;2024-03-02T05:40:31;97843.31;;;12.83;72.87
32456;BME280;18912;43.270;27.942;2024-03-02T05:42:57;97847.81;;;13.07;71.88
32456;BME280;18912;43.270;27.942;2024-03-02T05:45:22;97847.28;;;12.99;71.98
32456;BME280;18912;43.270;27.942;2024-03-02T05:47:48;97846.31;;;12.93;72.23
32456;BME280;18912;43.270;27.942;2024-03-02T05:50:13;97840.16;;;12.68;73.47
32456;BME280;18912;43.270;27.942;2024-03-02T05:52:39;97836.59;;;12.68;73.87
32456;BME280;18912;43.270;27.942;2024-03-02T05:55:05;97836.44;;;12.99;72.86
32456;BME280;18912;43.270;27.942;2024-03-02T05:57:30;97825.53;;;13.17;71.85
32456;BME280;18912;43.270;27.942;2024-03-02T06:00:15;97825.34;;;13.30;71.49
32456;BME280;18912;43.270;27.942;2024-03-02T06:02:42;97817.84;;;13.44;71.35
32456;BME280;18912;43.270;27.942;2024-03-02T06:05:08;97821.91;;;13.64;70.25
32456;BME280;18912;43.270;27.942;2024-03-02T06:07:34;97820.63;;;13.67;70.16
32456;BME280;18912;43.270;27.942;2024-03-02T06:09:59;97821.44;;;13.90;69.21
32456;BME280;18912;43.270;27.942;2024-03-02T06:12:25;97815.66;;;13.87;69.11
32456;BME280;18912;43.270;27.942;2024-03-02T06:14:50;97814.00;;;13.74;69.13
32456;BME280;18912;43.270;27.942;2024-03-02T06:17:16;97804.31;;;13.67;69.06
32456;BME280;18912;43.270;27.942;2024-03-02T06:19:41;97837.06;;;14.06;68.38
32456;BME280;18912;43.270;27.942;2024-03-02T06:22:07;97837.91;;;14.07;67.83
32456;BME280;18912;43.270;27.942;2024-03-02T06:24:36;97827.97;;;14.13;67.59
32456;BME280;18912;43.270;27.942;2024-03-02T06:27:03;97821.69;;;13.77;69.21
32456;BME280;18912;43.270;27.942;2024-03-02T06:29:29;97830.78;;;14.06;68.56
32456;BME280;18912;43.270;27.942;2024-03-02T06:31:54;97818.16;;;14.12;68.60
32456;BME280;18912;43.270;27.942;2024-03-02T06:34:20;97820.38;;;13.80;69.62
32456;BME280;18912;43.270;27.942;2024-03-02T06:36:45;97809.31;;;14.04;68.78
32456;BME280;18912;43.270;27.942;2024-03-02T06:39:11;97819.94;;;14.06;68.06
32456;BME280;18912;43.270;27.942;2024-03-02T06:41:38;97828.22;;;14.11;68.73
32456;BME280;18912;43.270;27.942;2024-03-02T06:44:03;97831.03;;;14.16;68.49
32456;BME280;18912;43.270;27.942;2024-03-02T06:46:29;97826.19;;;14.18;68.30
32456;BME280;18912;43.270;27.942;2024-03-02T06:48:54;97829.75;;;14.07;67.92
32456;BME280;18912;43.270;27.942;2024-03-02T06:51:20;97826.53;;;14.10;68.02
32456;BME280;18912;43.270;27.942;2024-03-02T06:53:45;97816.53;;;14.34;67.88
32456;BME280;18912;43.270;27.942;2024-03-02T06:56:12;97834.97;;;14.55;67.03
32456;BME280;18912;43.270;27.942;2024-03-02T06:58:37;97829.13;;;14.51;66.77
32456;BME280;18912;43.270;27.942;2024-03-02T07:01:03;97814.97;;;14.26;66.81
32456;BME280;18912;43.270;27.942;2024-03-02T07:03:28;97828.31;;;14.62;66.42
32456;BME280;18912;43.270;27.942;2024-03-02T07:05:54;97808.69;;;14.26;66.97
32456;BME280;18912;43.270;27.942;2024-03-02T07:08:19;97828.44;;;14.56;66.70
32456;BME280;18912;43.270;27.942;2024-03-02T07:10:45;97827.91;;;14.70;65.86
32456;BME280;18912;43.270;27.942;2024-03-02T07:13:12;97839.88;;;14.81;65.23
32456;BME280;18912;43.270;27.942;2024-03-02T07:15:38;97829.75;;;14.93;64.83
32456;BME280;18912;43.270;27.942;2024-03-02T07:18:22;97827.28;;;14.91;64.09
32456;BME280;18912;43.270;27.942;2024-03-02T07:20:48;97840.25;;;14.61;65.61
32456;BME280;18912;43.270;27.942;2024-03-02T07:23:15;97841.69;;;15.04;64.75
32456;BME280;18912;43.270;27.942;2024-03-02T07:25:40;97839.59;;;14.94;64.10
32456;BME280;18912;43.270;27.942;2024-03-02T07:28:06;97836.94;;;14.99;64.00
32456;BME280;18912;43.270;27.942;2024-03-02T07:30:33;97846.59;;;15.18;63.40
32456;BME280;18912;43.270;27.942;2024-03-02T07:32:59;97838.25;;;15.08;63.47
32456;BME280;18912;43.270;27.942;2024-03-02T07:35:25;97839.50;;;14.89;64.65
32456;BME280;18912;43.270;27.942;2024-03-02T07:37:53;97839.03;;;14.80;64.64
32456;BME280;18912;43.270;27.942;2024-03-02T07:40:19;97818.38;;;14.68;64.91
32456;BME280;18912;43.270;27.942;2024-03-02T07:42:45;97824.06;;;14.66;64.33
32456;BME280;18912;43.270;27.942;2024-03-02T07:45:11;97809.59;;;14.77;64.34
32456;BME280;18912;43.270;27.942;2024-03-02T07:47:36;97834.47;;;14.97;64.18
32456;BME280;18912;43.270;27.942;2024-03-02T07:50:02;97823.88;;;14.84;64.60
32456;BME280;18912;43.270;27.942;2024-03-02T07:52:28;97832.41;;;14.76;64.38
32456;BME280;18912;43.270;27.942;2024-03-02T07:54:54;97826.28;;;14.69;64.44
32456;BME280;18912;43.270;27.942;2024-03-02T07:57:20;97834.34;;;14.64;65.25
32456;BME280;18912;43.270;27.942;2024-03-02T07:59:46;97834.22;;;14.48;65.57
32456;BME280;18912;43.270;27.942;2024-03-02T08:02:12;97830.56;;;14.42;66.35
32456;BME280;18912;43.270;27.942;2024-03-02T08:04:38;97833.44;;;14.47;65.93
32456;BME280;18912;43.270;27.942;2024-03-02T08:07:04;97836.00;;;14.65;65.56
32456;BME280;18912;43.270;27.942;2024-03-02T08:09:29;97833.03;;;14.55;66.11
32456;BME280;18912;43.270;27.942;2024-03-02T08:11:55;97825.00;;;14.60;65.89
32456;BME280;18912;43.270;27.942;2024-03-02T08:14:23;97839.88;;;14.69;65.59
32456;BME280;18912;43.270;27.942;2024-03-02T08:16:48;97824.41;;;14.58;65.63
32456;BME280;18912;43.270;27.942;2024-03-02T08:19:14;97825.47;;;14.57;66.13
32456;BME280;18912;43.270;27.942;2024-03-02T08:21:40;97822.34;;;14.88;65.11
32456;BME280;18912;43.270;27.942;2024-03-02T08:24:06;97814.44;;;14.75;65.21
32456;BME280;18912;43.270;27.942;2024-03-02T08:26:32;97821.84;;;14.40;65.89
32456;BME280;18912;43.270;27.942;2024-03-02T08:28:58;97835.56;;;14.96;65.19
32456;BME280;18912;43.270;27.942;2024-03-02T08:31:24;97817.03;;;14.70;65.18
32456;BME280;18912;43.270;27.942;2024-03-02T08:33:50;97827.41;;;14.96;64.99
32456;BME280;18912;43.270;27.942;2024-03-02T08:36:15;97815.50;;;15.02;64.07
32456;BME280;18912;43.270;27.942;2024-03-02T08:38:42;97814.81;;;14.67;65.03
32456;BME280;18912;43.270;27.942;2024-03-02T08:41:09;97823.53;;;14.81;64.79
32456;BME280;18912;43.270;27.942;2024-03-02T08:43:35;97827.41;;;14.96;64.80
32456;BME280;18912;43.270;27.942;2024-03-02T08:46:00;97822.97;;;15.07;64.17
32456;BME280;18912;43.270;27.942;2024-03-02T08:48:26;97833.59;;;15.37;63.35
32456;BME280;18912;43.270;27.942;2024-03-02T08:50:51;97838.00;;;15.38;62.82
32456;BME280;18912;43.270;27.942;2024-03-02T08:53:17;97828.41;;;15.63;62.84
32456;BME280;18912;43.270;27.942;2024-03-02T08:55:45;97823.81;;;15.97;60.77
32456;BME280;18912;43.270;27.942;2024-03-02T08:58:11;97844.25;;;16.49;59.72
32456;BME280;18912;43.270;27.942;2024-03-02T09:00:36;97847.94;;;16.43;58.46
32456;BME280;18912;43.270;27.942;2024-03-02T09:03:03;97849.03;;;16.59;58.02
32456;BME280;18912;43.270;27.942;2024-03-02T09:05:28;97866.72;;;16.56;58.52
32456;BME280;18912;43.270;27.942;2024-03-02T09:07:54;97871.78;;;16.86;58.22
32456;BME280;18912;43.270;27.942;2024-03-02T09:10:20;97863.34;;;16.88;56.69
32456;BME280;18912;43.270;27.942;2024-03-02T09:12:46;97864.03;;;17.21;55.27
32456;BME280;18912;43.270;27.942;2024-03-02T09:15:12;97864.06;;;17.00;55.12
32456;BME280;18912;43.270;27.942;2024-03-02T09:17:37;97855.97;;;17.10;53.94
32456;BME280;18912;43.270;27.942;2024-03-02T09:20:04;97867.78;;;16.94;54.37
32456;BME280;18912;43.270;27.942;2024-03-02T09:22:29;97859.66;;;16.99;54.13
32456;BME280;18912;43.270;27.942;2024-03-02T09:24:55;97857.22;;;17.45;53.14
32456;BME280;18912;43.270;27.942;2024-03-02T09:27:21;97860.63;;;17.09;53.56
32456;BME280;18912;43.270;27.942;2024-03-02T09:29:47;97843.34;;;17.79;53.01
32456;BME280;18912;43.270;27.942;2024-03-02T09:32:14;97844.78;;;17.86;52.11
32456;BME280;18912;43.270;27.942;2024-03-02T09:34:40;97840.69;;;17.84;51.42
32456;BME280;18912;43.270;27.942;2024-03-02T09:37:06;97836.84;;;18.53;50.80
32456;BME280;18912;43.270;27.942;2024-03-02T09:39:31;97841.50;;;17.84;51.79
32456;BME280;18912;43.270;27.942;2024-03-02T09:42:00;97845.03;;;17.53;51.82
32456;BME280;18912;43.270;27.942;2024-03-02T09:44:26;97833.19;;;17.21;52.27
32456;BME280;18912;43.270;27.942;2024-03-02T09:46:52;97850.88;;;17.40;52.69
32456;BME280;18912;43.270;27.942;2024-03-02T09:49:17;97845.91;;;17.58;52.69
32456;BME280;18912;43.270;27.942;2024-03-02T09:51:49;97813.00;;;17.27;52.76
32456;BME280;18912;43.270;27.942;2024-03-02T09:54:16;97835.16;;;17.79;52.26
32456;BME280;18912;43.270;27.942;2024-03-02T09:56:42;97838.44;;;18.12;51.77
32456;BME280;18912;43.270;27.942;2024-03-02T09:59:08;97830.31;;;18.22;50.98
32456;BME280;18912;43.270;27.942;2024-03-02T10:01:34;97827.81;;;17.84;51.13
32456;BME280;18912;43.270;27.942;2024-03-02T10:04:00;97828.63;;;17.80;51.05
32456;BME280;18912;43.270;27.942;2024-03-02T10:06:27;97821.16;;;17.70;52.42
32456;BME280;18912;43.270;27.942;2024-03-02T10:08:53;97820.66;;;17.78;52.29
32456;BME280;18912;43.270;27.942;2024-03-02T10:11:31;97821.38;;;17.68;51.35
32456;BME280;18912;43.270;27.942;2024-03-02T10:14:24;97832.06;;;17.97;51.51
32456;BME280;18912;43.270;27.942;2024-03-02T10:16:50;97821.19;;;17.75;51.23
32456;BME280;18912;43.270;27.942;2024-03-02T10:19:23;97824.22;;;17.79;51.59
32456;BME280;18912;43.270;27.942;2024-03-02T10:21:49;97829.88;;;17.99;51.74
32456;BME280;18912;43.270;27.942;2024-03-02T10:24:16;97827.19;;;17.72;51.59
32456;BME280;18912;43.270;27.942;2024-03-02T10:26:42;97830.44;;;17.21;52.32
32456;BME280;18912;43.270;27.942;2024-03-02T10:29:11;97827.84;;;17.09;53.08
32456;BME280;18912;43.270;27.942;2024-03-02T10:31:42;97828.13;;;16.86;54.04
32456;BME280;18912;43.270;27.942;2024-03-02T10:34:09;97816.59;;;16.62;55.41
32456;BME280;18912;43.270;27.942;2024-03-02T10:36:37;97809.31;;;16.90;54.16
32456;BME280;18912;43.270;27.942;2024-03-02T10:39:07;97816.94;;;17.09;53.20
32456;BME280;18912;43.270;27.942;2024-03-02T10:41:37;97797.91;;;17.46;52.40
32456;BME280;18912;43.270;27.942;2024-03-02T10:44:05;97807.88;;;17.30;52.45
32456;BME280;18912;43.270;27.942;2024-03-02T10:46:33;97809.91;;;17.40;52.48
32456;BME280;18912;43.270;27.942;2024-03-02T10:49:00;97803.06;;;17.64;51.14
32456;BME280;18912;43.270;27.942;2024-03-02T10:51:30;97805.69;;;17.54;52.40
32456;BME280;18912;43.270;27.942;2024-03-02T10:54:00;97802.09;;;17.27;51.98
32456;BME280;18912;43.270;27.942;2024-03-02T10:59:03;97784.91;;;17.53;51.78
32456;BME280;18912;43.270;27.942;2024-03-02T11:01:32;97786.06;;;17.35;52.00
32456;BME280;18912;43.270;27.942;2024-03-02T11:03:59;97796.63;;;17.27;52.33
32456;BME280;18912;43.270;27.942;2024-03-02T11:06:28;97759.44;;;17.21;53.02
32456;BME280;18912;43.270;27.942;2024-03-02T11:09:00;97777.84;;;17.57;52.37
32456;BME280;18912;43.270;27.942;2024-03-02T11:11:36;97787.78;;;17.68;52.29
32456;BME280;18912;43.270;27.942;2024-03-02T11:14:04;97770.25;;;17.64;52.28
32456;BME280;18912;43.270;27.942;2024-03-02T11:16:38;97781.19;;;17.37;51.43
32456;BME280;18912;43.270;27.942;2024-03-02T11:19:10;97764.22;;;17.62;51.63
32456;BME280;18912;43.270;27.942;2024-03-02T11:21:37;97776.78;;;17.63;50.66
32456;BME280;18912;43.270;27.942;2024-03-02T11:26:47;97773.81;;;17.64;50.94
32456;BME280;18912;43.270;27.942;2024-03-02T11:32:03;97777.13;;;17.13;51.42
32456;BME280;18912;43.270;27.942;2024-03-02T11:34:31;97771.19;;;17.48;51.66
32456;BME280;18912;43.270;27.942;2024-03-02T11:37:06;97775.41;;;17.34;52.39
32456;BME280;18912;43.270;27.942;2024-03-02T11:39:31;97776.13;;;16.98;52.85
32456;BME280;18912;43.270;27.942;2024-03-02T11:41:57;97762.16;;;17.47;51.56
32456;BME280;18912;43.270;27.942;2024-03-02T11:44:29;97758.84;;;17.72;51.44
32456;BME280;18912;43.270;27.942;2024-03-02T11:46:59;97765.47;;;17.81;50.82
32456;BME280;18912;43.270;27.942;2024-03-02T11:52:14;97766.81;;;17.79;49.65
32456;BME280;18912;43.270;27.942;2024-03-02T11:54:45;97755.47;;;17.60;50.15
32456;BME280;18912;43.270;27.942;2024-03-02T11:57:21;97764.06;;;17.79;50.75
32456;BME280;18912;43.270;27.942;2024-03-02T11:59:50;97758.91;;;17.82;50.46
32456;BME280;18912;43.270;27.942;2024-03-02T12:02:17;97753.69;;;18.17;49.62
32456;BME280;18912;43.270;27.942;2024-03-02T12:04:43;97764.38;;;18.19;50.11
32456;BME280;18912;43.270;27.942;2024-03-02T12:07:10;97754.72;;;18.06;49.93
32456;BME280;18912;43.270;27.942;2024-03-02T12:09:36;97754.38;;;17.98;49.73
32456;BME280;18912;43.270;27.942;2024-03-02T12:14:31;97758.28;;;17.70;50.45
32456;BME280;18912;43.270;27.942;2024-03-02T12:16:56;97758.97;;;17.87;50.43
32456;BME280;18912;43.270;27.942;2024-03-02T12:19:24;97756.13;;;17.72;50.68
32456;BME280;18912;43.270;27.942;2024-03-02T12:21:50;97744.06;;;17.15;51.47
32456;BME280;18912;43.270;27.942;2024-03-02T12:24:16;97758.94;;;17.02;52.34
32456;BME280;18912;43.270;27.942;2024-03-02T12:26:42;97750.84;;;16.86;52.42
32456;BME280;18912;43.270;27.942;2024-03-02T12:29:07;97750.97;;;16.96;52.66
32456;BME280;18912;43.270;27.942;2024-03-02T12:31:33;97743.75;;;16.85;52.81
32456;BME280;18912;43.270;27.942;2024-03-02T12:33:59;97753.16;;;16.50;54.32
32456;BME280;18912;43.270;27.942;2024-03-02T12:36:25;97753.09;;;16.67;53.85
32456;BME280;18912;43.270;27.942;2024-03-02T12:38:53;97745.16;;;16.65;54.41
32456;BME280;18912;43.270;27.942;2024-03-02T12:41:18;97755.72;;;16.40;54.99
32456;BME280;18912;43.270;27.942;2024-03-02T12:43:44;97747.81;;;16.60;55.16
32456;BME280;18912;43.270;27.942;2024-03-02T12:46:10;97751.22;;;16.29;55.17
32456;BME280;18912;43.270;27.942;2024-03-02T12:48:36;97739.56;;;16.55;54.98
32456;BME280;18912;43.270;27.942;2024-03-02T12:51:02;97752.38;;;16.76;54.87
32456;BME280;18912;43.270;27.942;2024-03-02T12:53:28;97760.44;;;16.28;55.81
32456;BME280;18912;43.270;27.942;2024-03-02T12:55:54;97752.09;;;16.35;55.34
32456;BME280;18912;43.270;27.942;2024-03-02T12:58:22;97745.88;;;16.56;54.63
32456;BME280;18912;43.270;27.942;2024-03-02T13:00:48;97747.25;;;16.58;55.02
32456;BME280;18912;43.270;27.942;2024-03-02T13:03:14;97757.09;;;16.21;56.19
32456;BME280;18912;43.270;27.942;2024-03-02T13:05:40;97753.38;;;16.27;55.78